sensor_id;sensor_type;location;lat;lon;timestamp;temperature;humidity
12152;DHT22;6139;51.274;7.128;2023-04-08T00:00:34;8.10;99.90
12152;DHT22;6139;51.274;7.128;2023-04-08T00:01:36;8.10;99.90
12152;DHT22;6139;51.274;7.128;2023-04-08T00:02:37;8.10;99.90
12152;DHT22;6139;51.274;7.128;2023-04-08T00:03:39;8.10;99.90
12152;DHT22;6139;51.274;7.128;2023-04-08T00:04:40;8.10;99.90
12152;DHT22;6139;51.274;7.128;2023-04-08T00:05:42;8.10;99.90
12152;DHT22;6139;51.274;7.128;2023-04-08T00:06:43;8.10;99.90
12152;DHT22;6139;51.274;7.128;2023-04-08T00:07:45;8.10;99.90
12152;DHT22;6139;51.274;7.128;2023-04-08T00:08:46;8.20;99.90
12152;DHT22;6139;51.274;7.128;2023-04-08T00:09:48;8.20;99.90
12152;DHT22;6139;51.274;7.128;2023-04-08T00:10:49;8.20;99.90
12152;DHT22;6139;51.274;7.128;2023-04-08T00:11:51;8.10;99.90
12152;DHT22;6139;51.274;7.128;2023-04-08T00:12:52;8.20;99.90
12152;DHT22;6139;51.274;7.128;2023-04-08T00:13:55;8.20;99.90
12152;DHT22;6139;51.274;7.128;2023-04-08T00:14:58;8.20;99.90
12152;DHT22;6139;51.274;7.128;2023-04-08T00:16:00;8.10;99.90
12152;DHT22;6139;51.274;7.128;2023-04-08T00:17:01;8.10;99.90
12152;DHT22;6139;51.274;7.128;2023-04-08T00:18:03;8.10;99.90
12152;DHT22;6139;51.274;7.128;2023-04-08T00:19:04;8.10;99.90
12152;DHT22;6139;51.274;7.128;2023-04-08T00:20:07;8.10;99.90
12152;DHT22;6139;51.274;7.128;2023-04-08T00:21:08;8.10;99.90
12152;DHT22;6139;51.274;7.128;2023-04-08T00:22:10;8.10;99.90
12152;DHT22;6139;51.274;7.128;2023-04-08T00:23:11;8.10;99.90
12152;DHT22;6139;51.274;7.128;2023-04-08T00:24:13;8.10;99.90
12152;DHT22;6139;51.274;7.128;2023-04-08T00:25:14;8.00;99.90
12152;DHT22;6139;51.274;7.128;2023-04-08T00:26:16;8.00;99.90
12152;DHT22;6139;51.274;7.128;2023-04-08T00:27:17;8.00;99.90
12152;DHT22;6139;51.274;7.128;2023-04-08T00:28:19;8.00;99.90
12152;DHT22;6139;51.274;7.128;2023-04-08T00:29:21;8.00;99.90
12152;DHT22;6139;51.274;7.128;2023-04-08T00:30:24;8.00;99.90
12152;DHT22;6139;51.274;7.128;2023-04-08T00:31:27;8.00;99.90
12152;DHT22;6139;51.274;7.128;2023-04-08T00:32:28;8.00;99.90
12152;DHT22;6139;51.274;7.128;2023-04-08T00:33:30;8.00;99.90
12152;DHT22;6139;51.274;7.128;2023-04-08T00:34:32;8.00;99.90
12152;DHT22;6139;51.274;7.128;2023-04-08T00:35:33;8.00;99.90
12152;DHT22;6139;51.274;7.128;2023-04-08T00:36:35;8.00;99.90
12152;DHT22;6139;51.274;7.128;2023-04-08T00:37:36;8.00;99.90
12152;DHT22;6139;51.274;7.128;2023-04-08T00:38:38;8.00;99.90
12152;DHT22;6139;51.274;7.128;2023-04-08T00:39:38;8.00;99.90
12152;DHT22;6139;51.274;7.128;2023-04-08T00:40:41;8.00;99.90
12152;DHT22;6139;51.274;7.128;2023-04-08T00:41:42;7.90;99.90
12152;DHT22;6139;51.274;7.128;2023-04-08T00:42:44;7.90;99.90
12152;DHT22;6139;51.274;7.128;2023-04-08T00:43:45;7.90;99.90
12152;DHT22;6139;51.274;7.128;2023-04-08T00:44:47;7.90;99.90
12152;DHT22;6139;51.274;7.128;2023-04-08T00:45:49;7.90;99.90
12152;DHT22;6139;51.274;7.128;2023-04-08T00:46:51;7.90;99.90
12152;DHT22;6139;51.274;7.128;2023-04-08T00:47:52;7.90;99.90
12152;DHT22;6139;51.274;7.128;2023-04-08T00:48:54;7.90;99.90
12152;DHT22;6139;51.274;7.128;2023-04-08T00:49:56;7.90;99.90
12152;DHT22;6139;51.274;7.128;2023-04-08T00:50:58;7.90;99.90
12152;DHT22;6139;51.274;7.128;2023-04-08T00:51:59;7.80;99.90
12152;DHT22;6139;51.274;7.128;2023-04-08T00:53:01;7.90;99.90
12152;DHT22;6139;51.274;7.128;2023-04-08T00:54:02;7.90;99.90
12152;DHT22;6139;51.274;7.128;2023-04-08T00:55:06;7.90;99.90
12152;DHT22;6139;51.274;7.128;2023-04-08T00:56:08;7.90;99.90
12152;DHT22;6139;51.274;7.128;2023-04-08T00:57:10;7.90;99.90
12152;DHT22;6139;51.274;7.128;2023-04-08T00:58:11;7.90;99.90
12152;DHT22;6139;51.274;7.128;2023-04-08T00:59:14;7.90;99.90
12152;DHT22;6139;51.274;7.128;2023-04-08T01:00:15;7.90;99.90
12152;DHT22;6139;51.274;7.128;2023-04-08T01:01:24;7.90;99.90
12152;DHT22;6139;51.274;7.128;2023-04-08T01:02:30;7.90;99.90
12152;DHT22;6139;51.274;7.128;2023-04-08T01:03:41;7.90;99.90
12152;DHT22;6139;51.274;7.128;2023-04-08T01:04:54;8.00;99.90
12152;DHT22;6139;51.274;7.128;2023-04-08T01:06:04;8.00;99.90
12152;DHT22;6139;51.274;7.128;2023-04-08T01:07:14;8.00;99.90
12152;DHT22;6139;51.274;7.128;2023-04-08T01:08:18;7.90;99.90
12152;DHT22;6139;51.274;7.128;2023-04-08T01:09:22;8.00;99.90
12152;DHT22;6139;51.274;7.128;2023-04-08T01:10:28;8.00;99.90
12152;DHT22;6139;51.274;7.128;2023-04-08T01:11:31;8.00;99.90
12152;DHT22;6139;51.274;7.128;2023-04-08T01:12:40;8.00;99.90
12152;DHT22;6139;51.274;7.128;2023-04-08T01:13:44;8.00;99.90
12152;DHT22;6139;51.274;7.128;2023-04-08T01:14:48;8.00;99.90
12152;DHT22;6139;51.274;7.128;2023-04-08T01:15:52;8.00;99.90
12152;DHT22;6139;51.274;7.128;2023-04-08T01:16:58;8.00;99.90
12152;DHT22;6139;51.274;7.128;2023-04-08T01:18:05;8.00;99.90
12152;DHT22;6139;51.274;7.128;2023-04-08T01:19:08;8.00;99.90
12152;DHT22;6139;51.274;7.128;2023-04-08T01:20:12;7.90;99.90
12152;DHT22;6139;51.274;7.128;2023-04-08T01:21:15;7.80;99.90
12152;DHT22;6139;51.274;7.128;2023-04-08T01:22:24;7.80;99.90
12152;DHT22;6139;51.274;7.128;2023-04-08T01:23:34;7.70;99.90
12152;DHT22;6139;51.274;7.128;2023-04-08T01:24:39;7.70;99.90
12152;DHT22;6139;51.274;7.128;2023-04-08T01:25:47;7.70;99.90
12152;DHT22;6139;51.274;7.128;2023-04-08T01:26:49;7.70;99.90
12152;DHT22;6139;51.274;7.128;2023-04-08T01:27:52;7.60;99.90
12152;DHT22;6139;51.274;7.128;2023-04-08T01:28:58;7.70;99.90
12152;DHT22;6139;51.274;7.128;2023-04-08T01:30:02;7.70;99.90
12152;DHT22;6139;51.274;7.128;2023-04-08T01:31:05;7.70;99.90
12152;DHT22;6139;51.274;7.128;2023-04-08T01:32:08;7.70;99.90
12152;DHT22;6139;51.274;7.128;2023-04-08T01:33:12;7.70;99.90
12152;DHT22;6139;51.274;7.128;2023-04-08T01:34:15;7.70;99.90
12152;DHT22;6139;51.274;7.128;2023-04-08T01:35:18;7.70;99.90
12152;DHT22;6139;51.274;7.128;2023-04-08T01:36:22;7.70;99.90
12152;DHT22;6139;51.274;7.128;2023-04-08T01:37:24;7.70;99.90
12152;DHT22;6139;51.274;7.128;2023-04-08T01:38:31;7.70;99.90
12152;DHT22;6139;51.274;7.128;2023-04-08T01:39:34;7.80;99.90
12152;DHT22;6139;51.274;7.128;2023-04-08T01:40:38;7.70;99.90
12152;DHT22;6139;51.274;7.128;2023-04-08T01:41:42;7.70;99.90
12152;DHT22;6139;51.274;7.128;2023-04-08T01:42:44;7.70;99.90
12152;DHT22;6139;51.274;7.128;2023-04-08T01:43:47;7.60;99.90
12152;DHT22;6139;51.274;7.128;2023-04-08T01:44:50;7.60;99.90
12152;DHT22;6139;51.274;7.128;2023-04-08T01:45:53;7.60;99.90
12152;DHT22;6139;51.274;7.128;2023-04-08T01:46:58;7.50;99.90
12152;DHT22;6139;51.274;7.128;2023-04-08T01:48:00;7.50;99.90
12152;DHT22;6139;51.274;7.128;2023-04-08T01:49:03;7.50;99.90
12152;DHT22;6139;51.274;7.128;2023-04-08T01:50:07;7.50;99.90
12152;DHT22;6139;51.274;7.128;2023-04-08T01:51:08;7.50;99.90
12152;DHT22;6139;51.274;7.128;2023-04-08T01:52:12;7.40;99.90
12152;DHT22;6139;51.274;7.128;2023-04-08T01:53:14;7.50;99.90
12152;DHT22;6139;51.274;7.128;2023-04-08T01:54:16;7.40;99.90
12152;DHT22;6139;51.274;7.128;2023-04-08T01:55:18;7.40;99.90
12152;DHT22;6139;51.274;7.128;2023-04-08T01:56:21;7.40;99.90
12152;DHT22;6139;51.274;7.128;2023-04-08T01:57:27;7.50;99.90
12152;DHT22;6139;51.274;7.128;2023-04-08T01:58:45;7.50;99.90
12152;DHT22;6139;51.274;7.128;2023-04-08T01:59:49;7.50;99.90
12152;DHT22;6139;51.274;7.128;2023-04-08T02:00:53;7.50;99.90
12152;DHT22;6139;51.274;7.128;2023-04-08T02:01:56;7.50;99.90
12152;DHT22;6139;51.274;7.128;2023-04-08T02:02:59;7.50;99.90
12152;DHT22;6139;51.274;7.128;2023-04-08T02:04:01;7.50;99.90
12152;DHT22;6139;51.274;7.128;2023-04-08T02:05:04;7.50;99.90
12152;DHT22;6139;51.274;7.128;2023-04-08T02:06:06;7.40;99.90
12152;DHT22;6139;51.274;7.128;2023-04-08T02:07:08;7.40;99.90
12152;DHT22;6139;51.274;7.128;2023-04-08T02:08:09;7.50;99.90
12152;DHT22;6139;51.274;7.128;2023-04-08T02:09:12;7.50;99.90
12152;DHT22;6139;51.274;7.128;2023-04-08T02:10:13;7.50;99.90
12152;DHT22;6139;51.274;7.128;2023-04-08T02:11:16;7.50;99.90
12152;DHT22;6139;51.274;7.128;2023-04-08T02:12:17;7.50;99.90
12152;DHT22;6139;51.274;7.128;2023-04-08T02:13:20;7.50;99.90
12152;DHT22;6139;51.274;7.128;2023-04-08T02:14:21;7.50;99.90
12152;DHT22;6139;51.274;7.128;2023-04-08T02:15:24;7.50;99.90
12152;DHT22;6139;51.274;7.128;2023-04-08T02:16:33;7.50;99.90
12152;DHT22;6139;51.274;7.128;2023-04-08T02:17:42;7.50;99.90
12152;DHT22;6139;51.274;7.128;2023-04-08T02:18:49;7.50;99.90
12152;DHT22;6139;51.274;7.128;2023-04-08T02:19:59;7.40;99.90
12152;DHT22;6139;51.274;7.128;2023-04-08T02:21:05;7.50;99.90
12152;DHT22;6139;51.274;7.128;2023-04-08T02:22:14;7.40;99.90
12152;DHT22;6139;51.274;7.128;2023-04-08T02:23:19;7.40;99.90
12152;DHT22;6139;51.274;7.128;2023-04-08T02:24:21;7.40;99.90
12152;DHT22;6139;51.274;7.128;2023-04-08T02:25:24;7.40;99.90
12152;DHT22;6139;51.274;7.128;2023-04-08T02:26:26;7.40;99.90
12152;DHT22;6139;51.274;7.128;2023-04-08T02:27:33;7.40;99.90
12152;DHT22;6139;51.274;7.128;2023-04-08T02:28:38;7.50;99.90
12152;DHT22;6139;51.274;7.128;2023-04-08T02:29:40;7.40;99.90
12152;DHT22;6139;51.274;7.128;2023-04-08T02:30:49;7.40;99.90
12152;DHT22;6139;51.274;7.128;2023-04-08T02:31:51;7.50;99.90
12152;DHT22;6139;51.274;7.128;2023-04-08T02:32:55;7.40;99.90
12152;DHT22;6139;51.274;7.128;2023-04-08T02:33:56;7.40;99.90
12152;DHT22;6139;51.274;7.128;2023-04-08T02:35:00;7.40;99.90
12152;DHT22;6139;51.274;7.128;2023-04-08T02:36:02;7.40;99.90
12152;DHT22;6139;51.274;7.128;2023-04-08T02:37:04;7.40;99.90
12152;DHT22;6139;51.274;7.128;2023-04-08T02:38:06;7.40;99.90
12152;DHT22;6139;51.274;7.128;2023-04-08T02:39:09;7.40;99.90
12152;DHT22;6139;51.274;7.128;2023-04-08T02:40:24;7.40;99.90
12152;DHT22;6139;51.274;7.128;2023-04-08T02:41:27;7.40;99.90
12152;DHT22;6139;51.274;7.128;2023-04-08T02:42:29;7.40;99.90
12152;DHT22;6139;51.274;7.128;2023-04-08T02:43:31;7.30;99.90
12152;DHT22;6139;51.274;7.128;2023-04-08T02:44:34;7.30;99.90
12152;DHT22;6139;51.274;7.128;2023-04-08T02:45:39;7.40;99.90
12152;DHT22;6139;51.274;7.128;2023-04-08T02:46:40;7.40;99.90
12152;DHT22;6139;51.274;7.128;2023-04-08T02:47:43;7.40;99.90
12152;DHT22;6139;51.274;7.128;2023-04-08T02:48:44;7.40;99.90
12152;DHT22;6139;51.274;7.128;2023-04-08T02:49:46;7.30;99.90
12152;DHT22;6139;51.274;7.128;2023-04-08T02:50:47;7.20;99.90
12152;DHT22;6139;51.274;7.128;2023-04-08T02:51:48;7.20;99.90
12152;DHT22;6139;51.274;7.128;2023-04-08T02:52:49;7.20;99.90
12152;DHT22;6139;51.274;7.128;2023-04-08T02:53:51;7.20;99.90
12152;DHT22;6139;51.274;7.128;2023-04-08T02:54:52;7.20;99.90
12152;DHT22;6139;51.274;7.128;2023-04-08T02:55:54;7.20;99.90
12152;DHT22;6139;51.274;7.128;2023-04-08T02:56:55;7.20;99.90
12152;DHT22;6139;51.274;7.128;2023-04-08T02:57:57;7.20;99.90
12152;DHT22;6139;51.274;7.128;2023-04-08T02:58:58;7.20;99.90
12152;DHT22;6139;51.274;7.128;2023-04-08T03:00:02;7.20;99.90
12152;DHT22;6139;51.274;7.128;2023-04-08T03:01:03;7.20;99.90
12152;DHT22;6139;51.274;7.128;2023-04-08T03:02:06;7.20;99.90
12152;DHT22;6139;51.274;7.128;2023-04-08T03:03:07;7.20;99.90
12152;DHT22;6139;51.274;7.128;2023-04-08T03:04:09;7.20;99.90
12152;DHT22;6139;51.274;7.128;2023-04-08T03:05:10;7.20;99.90
12152;DHT22;6139;51.274;7.128;2023-04-08T03:06:12;7.20;99.90
12152;DHT22;6139;51.274;7.128;2023-04-08T03:07:13;7.20;99.90
12152;DHT22;6139;51.274;7.128;2023-04-08T03:08:15;7.20;99.90
12152;DHT22;6139;51.274;7.128;2023-04-08T03:09:16;7.20;99.90
12152;DHT22;6139;51.274;7.128;2023-04-08T03:10:18;7.10;99.90
12152;DHT22;6139;51.274;7.128;2023-04-08T03:11:19;7.10;99.90
12152;DHT22;6139;51.274;7.128;2023-04-08T03:12:21;7.10;99.90
12152;DHT22;6139;51.274;7.128;2023-04-08T03:13:22;7.00;99.90
12152;DHT22;6139;51.274;7.128;2023-04-08T03:14:24;7.10;99.90
12152;DHT22;6139;51.274;7.128;2023-04-08T03:15:26;7.00;99.90
12152;DHT22;6139;51.274;7.128;2023-04-08T03:16:28;7.10;99.90
12152;DHT22;6139;51.274;7.128;2023-04-08T03:17:29;7.00;99.90
12152;DHT22;6139;51.274;7.128;2023-04-08T03:18:33;7.00;99.90
12152;DHT22;6139;51.274;7.128;2023-04-08T03:19:34;7.00;99.90
12152;DHT22;6139;51.274;7.128;2023-04-08T03:20:36;7.00;99.90
12152;DHT22;6139;51.274;7.128;2023-04-08T03:21:37;7.00;99.90
12152;DHT22;6139;51.274;7.128;2023-04-08T03:22:39;7.00;99.90
12152;DHT22;6139;51.274;7.128;2023-04-08T03:23:40;6.90;99.90
12152;DHT22;6139;51.274;7.128;2023-04-08T03:24:41;6.90;99.90
12152;DHT22;6139;51.274;7.128;2023-04-08T03:25:43;7.00;99.90
12152;DHT22;6139;51.274;7.128;2023-04-08T03:26:45;7.00;99.90
12152;DHT22;6139;51.274;7.128;2023-04-08T03:27:46;6.90;99.90
12152;DHT22;6139;51.274;7.128;2023-04-08T03:28:47;6.90;99.90
12152;DHT22;6139;51.274;7.128;2023-04-08T03:29:48;7.00;99.90
12152;DHT22;6139;51.274;7.128;2023-04-08T03:30:52;6.90;99.90
12152;DHT22;6139;51.274;7.128;2023-04-08T03:31:53;6.90;99.90
12152;DHT22;6139;51.274;7.128;2023-04-08T03:32:55;6.90;99.90
12152;DHT22;6139;51.274;7.128;2023-04-08T03:33:56;6.90;99.90
12152;DHT22;6139;51.274;7.128;2023-04-08T03:34:57;6.90;99.90
12152;DHT22;6139;51.274;7.128;2023-04-08T03:35:58;6.90;99.90
12152;DHT22;6139;51.274;7.128;2023-04-08T03:37:00;7.00;99.90
12152;DHT22;6139;51.274;7.128;2023-04-08T03:38:02;6.90;99.90
12152;DHT22;6139;51.274;7.128;2023-04-08T03:39:03;7.00;99.90
12152;DHT22;6139;51.274;7.128;2023-04-08T03:40:07;6.90;99.90
12152;DHT22;6139;51.274;7.128;2023-04-08T03:41:08;6.90;99.90
12152;DHT22;6139;51.274;7.128;2023-04-08T03:42:10;6.80;99.90
12152;DHT22;6139;51.274;7.128;2023-04-08T03:43:12;6.80;99.90
12152;DHT22;6139;51.274;7.128;2023-04-08T03:44:14;6.80;99.90
12152;DHT22;6139;51.274;7.128;2023-04-08T03:45:15;6.80;99.90
12152;DHT22;6139;51.274;7.128;2023-04-08T03:46:18;6.70;99.90
12152;DHT22;6139;51.274;7.128;2023-04-08T03:47:19;6.70;99.90
12152;DHT22;6139;51.274;7.128;2023-04-08T03:48:22;6.70;99.90
12152;DHT22;6139;51.274;7.128;2023-04-08T03:49:23;6.70;99.90
12152;DHT22;6139;51.274;7.128;2023-04-08T03:50:25;6.60;99.90
12152;DHT22;6139;51.274;7.128;2023-04-08T03:51:26;6.70;99.90
12152;DHT22;6139;51.274;7.128;2023-04-08T03:52:28;6.70;99.90
12152;DHT22;6139;51.274;7.128;2023-04-08T03:53:29;6.70;99.90
12152;DHT22;6139;51.274;7.128;2023-04-08T03:54:31;6.70;99.90
12152;DHT22;6139;51.274;7.128;2023-04-08T03:55:32;6.70;99.90
12152;DHT22;6139;51.274;7.128;2023-04-08T03:56:34;6.70;99.90
12152;DHT22;6139;51.274;7.128;2023-04-08T03:57:35;6.70;99.90
12152;DHT22;6139;51.274;7.128;2023-04-08T03:58:37;6.60;99.90
12152;DHT22;6139;51.274;7.128;2023-04-08T03:59:38;6.60;99.90
12152;DHT22;6139;51.274;7.128;2023-04-08T04:00:40;6.50;99.90
12152;DHT22;6139;51.274;7.128;2023-04-08T04:01:43;6.50;99.90
12152;DHT22;6139;51.274;7.128;2023-04-08T04:02:45;6.50;99.90
12152;DHT22;6139;51.274;7.128;2023-04-08T04:03:45;6.50;99.90
12152;DHT22;6139;51.274;7.128;2023-04-08T04:04:47;6.40;99.90
12152;DHT22;6139;51.274;7.128;2023-04-08T04:05:48;6.40;99.90
12152;DHT22;6139;51.274;7.128;2023-04-08T04:06:50;6.40;99.90
12152;DHT22;6139;51.274;7.128;2023-04-08T04:07:51;6.30;99.90
12152;DHT22;6139;51.274;7.128;2023-04-08T04:08:53;6.30;99.90
12152;DHT22;6139;51.274;7.128;2023-04-08T04:09:54;6.30;99.90
12152;DHT22;6139;51.274;7.128;2023-04-08T04:10:57;6.20;99.90
12152;DHT22;6139;51.274;7.128;2023-04-08T04:11:58;6.20;99.90
12152;DHT22;6139;51.274;7.128;2023-04-08T04:13:00;6.20;99.90
12152;DHT22;6139;51.274;7.128;2023-04-08T04:14:01;6.30;99.90
12152;DHT22;6139;51.274;7.128;2023-04-08T04:15:04;6.20;99.90
12152;DHT22;6139;51.274;7.128;2023-04-08T04:16:05;6.20;99.90
12152;DHT22;6139;51.274;7.128;2023-04-08T04:17:09;6.20;99.90
12152;DHT22;6139;51.274;7.128;2023-04-08T04:18:10;6.20;99.90
12152;DHT22;6139;51.274;7.128;2023-04-08T04:19:12;6.20;99.90
12152;DHT22;6139;51.274;7.128;2023-04-08T04:20:13;6.20;99.90
12152;DHT22;6139;51.274;7.128;2023-04-08T04:21:15;6.20;99.90
12152;DHT22;6139;51.274;7.128;2023-04-08T04:22:16;6.10;99.90
12152;DHT22;6139;51.274;7.128;2023-04-08T04:23:18;6.20;99.90
12152;DHT22;6139;51.274;7.128;2023-04-08T04:24:19;6.20;99.90
12152;DHT22;6139;51.274;7.128;2023-04-08T04:25:21;6.10;99.90
12152;DHT22;6139;51.274;7.128;2023-04-08T04:26:22;6.10;99.90
12152;DHT22;6139;51.274;7.128;2023-04-08T04:27:24;6.10;99.90
12152;DHT22;6139;51.274;7.128;2023-04-08T04:28:25;6.10;99.90
12152;DHT22;6139;51.274;7.128;2023-04-08T04:29:27;6.10;99.90
12152;DHT22;6139;51.274;7.128;2023-04-08T04:30:30;6.10;99.90
12152;DHT22;6139;51.274;7.128;2023-04-08T04:31:32;6.10;99.90
12152;DHT22;6139;51.274;7.128;2023-04-08T04:32:34;6.10;99.90
12152;DHT22;6139;51.274;7.128;2023-04-08T04:33:36;6.10;99.90
12152;DHT22;6139;51.274;7.128;2023-04-08T04:34:37;6.10;99.90
12152;DHT22;6139;51.274;7.128;2023-04-08T04:35:39;6.00;99.90
12152;DHT22;6139;51.274;7.128;2023-04-08T04:36:40;6.00;99.90
12152;DHT22;6139;51.274;7.128;2023-04-08T04:37:42;5.90;99.90
12152;DHT22;6139;51.274;7.128;2023-04-08T04:38:43;5.90;99.90
12152;DHT22;6139;51.274;7.128;2023-04-08T04:39:45;5.90;99.90
12152;DHT22;6139;51.274;7.128;2023-04-08T04:40:46;5.90;99.90
12152;DHT22;6139;51.274;7.128;2023-04-08T04:41:48;5.80;99.90
12152;DHT22;6139;51.274;7.128;2023-04-08T04:42:49;5.80;99.90
12152;DHT22;6139;51.274;7.128;2023-04-08T04:43:51;5.80;99.90
12152;DHT22;6139;51.274;7.128;2023-04-08T04:44:52;5.70;99.90
12152;DHT22;6139;51.274;7.128;2023-04-08T04:45:54;5.70;99.90
12152;DHT22;6139;51.274;7.128;2023-04-08T04:46:56;5.70;99.90
12152;DHT22;6139;51.274;7.128;2023-04-08T04:47:59;5.80;99.90
12152;DHT22;6139;51.274;7.128;2023-04-08T04:49:00;5.80;99.90
12152;DHT22;6139;51.274;7.128;2023-04-08T04:50:03;5.80;99.90
12152;DHT22;6139;51.274;7.128;2023-04-08T04:51:04;5.80;99.90
12152;DHT22;6139;51.274;7.128;2023-04-08T04:52:07;5.90;99.90
12152;DHT22;6139;51.274;7.128;2023-04-08T04:53:08;5.90;99.90
12152;DHT22;6139;51.274;7.128;2023-04-08T04:54:10;5.90;99.90
12152;DHT22;6139;51.274;7.128;2023-04-08T04:55:11;6.00;99.90
12152;DHT22;6139;51.274;7.128;2023-04-08T04:56:12;6.00;99.90
12152;DHT22;6139;51.274;7.128;2023-04-08T04:57:13;6.00;99.90
12152;DHT22;6139;51.274;7.128;2023-04-08T04:58:16;6.00;99.90
12152;DHT22;6139;51.274;7.128;2023-04-08T04:59:17;6.00;99.90
12152;DHT22;6139;51.274;7.128;2023-04-08T05:00:19;6.10;99.90
12152;DHT22;6139;51.274;7.128;2023-04-08T05:01:20;6.10;99.90
12152;DHT22;6139;51.274;7.128;2023-04-08T05:02:21;6.10;99.90
12152;DHT22;6139;51.274;7.128;2023-04-08T05:03:25;6.10;99.90
12152;DHT22;6139;51.274;7.128;2023-04-08T05:04:26;6.10;99.90
12152;DHT22;6139;51.274;7.128;2023-04-08T05:05:28;6.10;99.90
12152;DHT22;6139;51.274;7.128;2023-04-08T05:06:29;6.10;99.90
12152;DHT22;6139;51.274;7.128;2023-04-08T05:07:34;6.10;99.90
12152;DHT22;6139;51.274;7.128;2023-04-08T05:08:36;6.10;99.90
12152;DHT22;6139;51.274;7.128;2023-04-08T05:09:37;6.10;99.90
12152;DHT22;6139;51.274;7.128;2023-04-08T05:10:39;6.00;99.90
12152;DHT22;6139;51.274;7.128;2023-04-08T05:11:41;6.00;99.90
12152;DHT22;6139;51.274;7.128;2023-04-08T05:12:43;6.00;99.90
12152;DHT22;6139;51.274;7.128;2023-04-08T05:13:44;6.00;99.90
12152;DHT22;6139;51.274;7.128;2023-04-08T05:14:46;6.00;99.90
12152;DHT22;6139;51.274;7.128;2023-04-08T05:15:47;6.00;99.90
12152;DHT22;6139;51.274;7.128;2023-04-08T05:16:49;6.00;99.90
12152;DHT22;6139;51.274;7.128;2023-04-08T05:17:50;6.00;99.90
12152;DHT22;6139;51.274;7.128;2023-04-08T05:18:53;6.00;99.90
12152;DHT22;6139;51.274;7.128;2023-04-08T05:19:54;6.00;99.90
12152;DHT22;6139;51.274;7.128;2023-04-08T05:20:56;6.00;99.90
12152;DHT22;6139;51.274;7.128;2023-04-08T05:21:58;6.00;99.90
12152;DHT22;6139;51.274;7.128;2023-04-08T05:23:00;6.00;99.90
12152;DHT22;6139;51.274;7.128;2023-04-08T05:24:01;6.00;99.90
12152;DHT22;6139;51.274;7.128;2023-04-08T05:25:03;6.00;99.90
12152;DHT22;6139;51.274;7.128;2023-04-08T05:26:06;6.00;99.90
12152;DHT22;6139;51.274;7.128;2023-04-08T05:27:08;6.00;99.90
12152;DHT22;6139;51.274;7.128;2023-04-08T05:28:09;6.00;99.90
12152;DHT22;6139;51.274;7.128;2023-04-08T05:29:11;6.00;99.90
12152;DHT22;6139;51.274;7.128;2023-04-08T05:30:12;6.00;99.90
12152;DHT22;6139;51.274;7.128;2023-04-08T05:31:14;6.00;99.90
12152;DHT22;6139;51.274;7.128;2023-04-08T05:32:16;6.00;99.90
12152;DHT22;6139;51.274;7.128;2023-04-08T05:33:18;6.00;99.90
12152;DHT22;6139;51.274;7.128;2023-04-08T05:34:20;6.00;99.90
12152;DHT22;6139;51.274;7.128;2023-04-08T05:35:22;6.00;99.90
12152;DHT22;6139;51.274;7.128;2023-04-08T05:36:23;6.00;99.90
12152;DHT22;6139;51.274;7.128;2023-04-08T05:37:26;6.00;99.90
12152;DHT22;6139;51.274;7.128;2023-04-08T05:38:26;6.00;99.90
12152;DHT22;6139;51.274;7.128;2023-04-08T05:39:28;6.00;99.90
12152;DHT22;6139;51.274;7.128;2023-04-08T05:40:29;6.00;99.90
12152;DHT22;6139;51.274;7.128;2023-04-08T05:41:31;6.00;99.90
12152;DHT22;6139;51.274;7.128;2023-04-08T05:42:32;6.00;99.90
12152;DHT22;6139;51.274;7.128;2023-04-08T05:43:34;6.00;99.90
12152;DHT22;6139;51.274;7.128;2023-04-08T05:44:36;6.00;99.90
12152;DHT22;6139;51.274;7.128;2023-04-08T05:45:38;6.00;99.90
12152;DHT22;6139;51.274;7.128;2023-04-08T05:46:40;6.00;99.90
12152;DHT22;6139;51.274;7.128;2023-04-08T05:47:42;6.00;99.90
12152;DHT22;6139;51.274;7.128;2023-04-08T05:48:43;6.00;99.90
12152;DHT22;6139;51.274;7.128;2023-04-08T05:49:46;5.90;99.90
12152;DHT22;6139;51.274;7.128;2023-04-08T05:50:47;6.00;99.90
12152;DHT22;6139;51.274;7.128;2023-04-08T05:51:49;6.00;99.90
12152;DHT22;6139;51.274;7.128;2023-04-08T05:52:51;6.00;99.90
12152;DHT22;6139;51.274;7.128;2023-04-08T05:53:52;6.00;99.90
12152;DHT22;6139;51.274;7.128;2023-04-08T05:54:53;6.00;99.90
12152;DHT22;6139;51.274;7.128;2023-04-08T05:55:56;6.00;99.90
12152;DHT22;6139;51.274;7.128;2023-04-08T05:56:57;6.00;99.90
12152;DHT22;6139;51.274;7.128;2023-04-08T05:57:58;6.00;99.90
12152;DHT22;6139;51.274;7.128;2023-04-08T05:58:59;6.00;99.90
12152;DHT22;6139;51.274;7.128;2023-04-08T06:00:02;6.00;99.90
12152;DHT22;6139;51.274;7.128;2023-04-08T06:01:07;6.10;99.90
12152;DHT22;6139;51.274;7.128;2023-04-08T06:02:09;6.10;99.90
12152;DHT22;6139;51.274;7.128;2023-04-08T06:03:10;6.10;99.90
12152;DHT22;6139;51.274;7.128;2023-04-08T06:04:11;6.10;99.90
12152;DHT22;6139;51.274;7.128;2023-04-08T06:05:14;6.10;99.90
12152;DHT22;6139;51.274;7.128;2023-04-08T06:06:16;6.20;99.90
12152;DHT22;6139;51.274;7.128;2023-04-08T06:07:17;6.20;99.90
12152;DHT22;6139;51.274;7.128;2023-04-08T06:08:19;6.20;99.90
12152;DHT22;6139;51.274;7.128;2023-04-08T06:09:21;6.20;99.90
12152;DHT22;6139;51.274;7.128;2023-04-08T06:10:22;6.20;99.90
12152;DHT22;6139;51.274;7.128;2023-04-08T06:11:24;6.30;99.90
12152;DHT22;6139;51.274;7.128;2023-04-08T06:12:25;6.30;99.90
12152;DHT22;6139;51.274;7.128;2023-04-08T06:13:27;6.30;99.90
12152;DHT22;6139;51.274;7.128;2023-04-08T06:14:28;6.40;99.90
12152;DHT22;6139;51.274;7.128;2023-04-08T06:15:30;6.40;99.90
12152;DHT22;6139;51.274;7.128;2023-04-08T06:16:32;6.40;99.90
12152;DHT22;6139;51.274;7.128;2023-04-08T06:17:35;6.40;99.90
12152;DHT22;6139;51.274;7.128;2023-04-08T06:18:36;6.50;99.90
12152;DHT22;6139;51.274;7.128;2023-04-08T06:19:38;6.50;99.90
12152;DHT22;6139;51.274;7.128;2023-04-08T06:20:40;6.50;99.90
12152;DHT22;6139;51.274;7.128;2023-04-08T06:21:42;6.50;99.90
12152;DHT22;6139;51.274;7.128;2023-04-08T06:22:43;6.50;99.90
12152;DHT22;6139;51.274;7.128;2023-04-08T06:23:45;6.50;99.90
12152;DHT22;6139;51.274;7.128;2023-04-08T06:24:46;6.50;99.90
12152;DHT22;6139;51.274;7.128;2023-04-08T06:25:48;6.50;99.90
12152;DHT22;6139;51.274;7.128;2023-04-08T06:26:49;6.50;99.90
12152;DHT22;6139;51.274;7.128;2023-04-08T06:27:52;6.60;99.90
12152;DHT22;6139;51.274;7.128;2023-04-08T06:28:54;6.60;99.90
12152;DHT22;6139;51.274;7.128;2023-04-08T06:29:55;6.60;99.90
12152;DHT22;6139;51.274;7.128;2023-04-08T06:30:57;6.60;99.90
12152;DHT22;6139;51.274;7.128;2023-04-08T06:31:58;6.70;99.90
12152;DHT22;6139;51.274;7.128;2023-04-08T06:33:00;6.70;99.90
12152;DHT22;6139;51.274;7.128;2023-04-08T06:34:01;6.70;99.90
12152;DHT22;6139;51.274;7.128;2023-04-08T06:35:04;6.70;99.90
12152;DHT22;6139;51.274;7.128;2023-04-08T06:36:07;6.70;99.90
12152;DHT22;6139;51.274;7.128;2023-04-08T06:37:09;6.70;99.90
12152;DHT22;6139;51.274;7.128;2023-04-08T06:38:10;6.80;99.90
12152;DHT22;6139;51.274;7.128;2023-04-08T06:39:12;6.70;99.90
12152;DHT22;6139;51.274;7.128;2023-04-08T06:40:14;6.70;99.90
12152;DHT22;6139;51.274;7.128;2023-04-08T06:41:15;6.70;99.90
12152;DHT22;6139;51.274;7.128;2023-04-08T06:42:17;6.80;99.90
12152;DHT22;6139;51.274;7.128;2023-04-08T06:43:29;6.80;99.90
12152;DHT22;6139;51.274;7.128;2023-04-08T06:44:31;6.80;99.90
12152;DHT22;6139;51.274;7.128;2023-04-08T06:45:32;6.80;99.90
12152;DHT22;6139;51.274;7.128;2023-04-08T06:46:34;6.80;99.90
12152;DHT22;6139;51.274;7.128;2023-04-08T06:47:35;6.80;99.90